Time;durP1;ratioP1;P1;durP2;ratioP2;P2;SDS_P1;SDS_P2;PMS_P1;PMS_P2;Temp;Humidity;BMP_temperature;BMP_pressure;BME280_temperature;BME280_humidity;BME280_pressure;Samples;Min_cycle;Max_cycle;Signal;HPM_P1;HPM_P2
2021/07/08 00:01:03;;;;;;;6.15;2.70;;;;;;;18.55;100.00;100652.34;5037841;28;20473;-71
2021/07/08 00:03:47;;;;;;;4.07;2.63;;;;;;;18.53;100.00;100651.69;5038033;28;20048;-71
2021/07/08 00:06:31;;;;;;;5.93;2.60;;;;;;;18.50;100.00;100650.22;5052117;28;20052;-71
2021/07/08 00:09:15;;;;;;;2.53;2.20;;;;;;;18.45;100.00;100649.94;5051933;28;20048;-71
2021/07/08 00:11:59;;;;;;;6.93;2.42;;;;;;;18.44;100.00;100652.81;5051862;28;20127;-71
2021/07/08 00:14:43;;;;;;;3.78;2.50;;;;;;;18.45;100.00;100638.31;5037937;28;20055;-71
2021/07/08 00:17:27;;;;;;;3.88;2.58;;;;;;;18.46;100.00;100635.41;5051621;28;20063;-71
2021/07/08 00:20:17;;;;;;;3.72;2.50;;;;;;;18.54;100.00;100642.56;5051716;28;20528;-71
2021/07/08 00:23:01;;;;;;;2.85;2.33;;;;;;;18.56;100.00;100640.56;5052890;28;20067;-71
2021/07/08 00:25:45;;;;;;;7.93;2.63;;;;;;;18.56;100.00;100640.56;5052997;28;20067;-71
2021/07/08 00:28:29;;;;;;;2.60;2.30;;;;;;;18.58;100.00;100652.00;5037400;28;20529;-71
2021/07/08 00:31:14;;;;;;;6.18;2.60;;;;;;;18.60;100.00;100647.25;5037286;28;20119;-71
2021/07/08 00:34:01;;;;;;;3.53;2.17;;;;;;;18.60;100.00;100636.44;5037574;28;20047;-71
2021/07/08 00:36:45;;;;;;;7.20;3.08;;;;;;;18.61;100.00;100617.34;5051570;28;20102;-71
2021/07/08 00:39:29;;;;;;;4.68;2.80;;;;;;;18.60;100.00;100620.25;5037599;28;20106;-71
2021/07/08 00:42:12;;;;;;;7.57;2.95;;;;;;;18.59;100.00;100634.78;5051663;28;20052;-71
2021/07/08 00:44:56;;;;;;;4.20;2.75;;;;;;;18.62;100.00;100640.63;5051641;28;20174;-71
2021/07/08 00:47:40;;;;;;;6.65;2.58;;;;;;;18.59;100.00;100641.00;5051710;28;20464;-71
2021/07/08 00:50:33;;;;;;;7.97;2.72;;;;;;;18.53;100.00;100630.94;5051361;28;20110;-72
2021/07/08 00:53:19;;;;;;;5.57;2.83;;;;;;;18.49;100.00;100629.63;5051462;28;20126;-71
2021/07/08 00:56:07;;;;;;;2.67;2.47;;;;;;;18.53;100.00;100638.19;5051372;28;20059;-71
2021/07/08 00:59:05;;;;;;;6.60;2.95;;;;;;;18.50;100.00;100638.59;5051493;28;20477;-71
2021/07/08 01:01:51;;;;;;;3.53;2.60;;;;;;;18.47;100.00;100641.66;5051736;28;20056;-71
2021/07/08 01:04:35;;;;;;;3.85;2.80;;;;;;;18.44;100.00;100631.22;5051508;28;20123;-70
2021/07/08 01:07:22;;;;;;;3.20;2.90;;;;;;;18.47;100.00;100628.16;5052468;28;20047;-71
2021/07/08 01:10:06;;;;;;;3.67;2.38;;;;;;;18.46;100.00;100624.59;5052235;28;20044;-71
2021/07/08 01:12:50;;;;;;;7.13;2.75;;;;;;;18.44;100.00;100626.66;5051441;28;20056;-71
2021/07/08 01:15:34;;;;;;;8.02;3.00;;;;;;;18.43;100.00;100634.94;5051093;28;20051;-71
2021/07/08 01:18:18;;;;;;;4.90;2.47;;;;;;;18.41;100.00;100642.38;5051387;28;20036;-69
2021/07/08 01:21:31;;;;;;;4.95;3.03;;;;;;;18.40;100.00;100635.31;5052539;28;20048;-69
2021/07/08 01:24:16;;;;;;;4.90;2.78;;;;;;;18.42;100.00;100627.03;5053991;28;20035;-69
2021/07/08 01:27:00;;;;;;;6.03;2.88;;;;;;;18.40;100.00;100632.63;5041246;28;20106;-66
2021/07/08 01:29:45;;;;;;;9.13;2.90;;;;;;;18.39;100.00;100625.53;5040739;28;20044;-71
2021/07/08 01:32:29;;;;;;;4.28;2.80;;;;;;;18.38;100.00;100618.47;5054968;28;20048;-69
2021/07/08 01:35:14;;;;;;;5.20;2.85;;;;;;;18.33;100.00;100628.97;5055872;28;20528;-70
2021/07/08 01:37:58;;;;;;;4.88;3.00;;;;;;;18.31;100.00;100632.91;5054444;28;20044;-70
2021/07/08 01:40:42;;;;;;;5.95;3.22;;;;;;;18.30;100.00;100629.34;5054605;28;20110;-69
2021/07/08 01:43:26;;;;;;;3.15;2.83;;;;;;;18.29;100.00;100633.06;5040709;28;20532;-71
2021/07/08 01:46:12;;;;;;;6.78;2.83;;;;;;;18.26;100.00;100633.41;5054673;28;20048;-70
2021/07/08 01:48:56;;;;;;;4.78;3.03;;;;;;;18.24;100.00;100623.81;5054646;28;20421;-71
2021/07/08 01:51:41;;;;;;;5.60;2.90;;;;;;;18.22;100.00;100617.78;5055463;28;20422;-71
2021/07/08 01:54:25;;;;;;;6.95;2.95;;;;;;;18.23;100.00;100605.97;5054806;28;20047;-71
2021/07/08 01:57:09;;;;;;;3.63;2.60;;;;;;;18.23;100.00;100604.09;5054434;28;20071;-71
2021/07/08 01:59:53;;;;;;;4.60;2.83;;;;;;;18.24;100.00;100619.25;5040131;28;20062;-71
2021/07/08 02:02:37;;;;;;;3.13;2.38;;;;;;;18.33;100.00;100607.38;5054441;28;20401;-71
2021/07/08 02:05:22;;;;;;;3.67;2.85;;;;;;;18.33;100.00;100609.25;5054567;28;20052;-71
2021/07/08 02:08:06;;;;;;;4.60;2.40;;;;;;;18.33;100.00;100607.38;5054254;28;20102;-71
2021/07/08 02:10:50;;;;;;;5.05;2.38;;;;;;;18.31;100.00;100606.72;5055102;28;20138;-71
2021/07/08 02:13:35;;;;;;;5.82;2.40;;;;;;;18.33;100.00;100618.19;5054223;28;20425;-70
2021/07/08 02:16:18;;;;;;;3.70;2.90;;;;;;;18.32;100.00;100611.09;5055341;28;20044;-71
2021/07/08 02:19:06;;;;;;;5.25;2.63;;;;;;;18.31;100.00;100620.22;5054791;28;20524;-71
2021/07/08 02:21:50;;;;;;;3.22;2.50;;;;;;;18.30;100.00;100607.75;5053986;28;20107;-70
2021/07/08 02:24:34;;;;;;;4.00;2.60;;;;;;;18.31;100.00;100606.72;5039841;28;20093;-71
2021/07/08 02:27:18;;;;;;;5.80;3.13;;;;;;;18.32;100.00;100605.72;5054950;28;20043;-71
2021/07/08 02:30:11;;;;;;;4.55;3.00;;;;;;;18.29;100.00;100595.28;5039734;28;20059;-71
2021/07/08 02:32:56;;;;;;;2.78;2.47;;;;;;;18.29;100.00;100600.69;5044677;22;20583;-64
2021/07/08 02:35:41;;;;;;;4.28;2.88;;;;;;;18.27;100.00;100594.63;5013717;28;20095;-64
2021/07/08 02:38:25;;;;;;;5.18;2.60;;;;;;;18.29;100.00;100599.84;5015201;28;20048;-63
2021/07/08 02:41:09;;;;;;;4.43;2.88;;;;;;;18.29;100.00;100592.59;5014588;28;20065;-65
2021/07/08 02:43:53;;;;;;;5.35;2.97;;;;;;;18.27;100.00;100589.22;5014868;28;20064;-65
2021/07/08 02:46:36;;;;;;;3.83;2.83;;;;;;;18.26;100.00;100609.13;5013507;28;20079;-64
2021/07/08 02:49:20;;;;;;;7.53;2.72;;;;;;;18.21;100.00;100625.03;5014792;28;20088;-64
2021/07/08 02:52:04;;;;;;;2.50;2.30;;;;;;;18.13;100.00;100638.59;5013612;28;20125;-64
2021/07/08 02:54:48;;;;;;;6.32;3.10;;;;;;;18.06;100.00;100651.16;5013482;28;20052;-64
2021/07/08 02:57:32;;;;;;;6.00;3.15;;;;;;;17.97;100.00;100657.66;5013600;28;20474;-64
2021/07/08 03:00:23;;;;;;;4.65;2.78;;;;;;;17.88;100.00;100660.56;4999674;28;20069;-64
2021/07/08 03:03:08;;;;;;;4.18;3.10;;;;;;;17.80;100.00;100657.97;5013244;28;20044;-64
2021/07/08 03:05:51;;;;;;;2.47;2.28;;;;;;;17.77;100.00;100648.38;5014489;28;20064;-63
2021/07/08 03:08:35;;;;;;;2.60;2.30;;;;;;;17.79;100.00;100656.31;4999301;28;20081;-64
2021/07/08 03:11:20;;;;;;;4.38;2.53;;;;;;;17.82;100.00;100661.31;5013214;28;20053;-64
2021/07/08 03:14:04;;;;;;;6.03;2.40;;;;;;;17.86;100.00;100663.47;5013003;28;20068;-64
2021/07/08 03:16:48;;;;;;;3.60;2.63;;;;;;;17.90;100.00;100654.00;5013173;28;20072;-64
2021/07/08 03:19:32;;;;;;;5.05;3.38;;;;;;;17.96;100.00;100650.56;5014166;28;20053;-64
2021/07/08 03:22:16;;;;;;;5.60;2.72;;;;;;;18.02;100.00;100649.00;5013843;28;20100;-64
2021/07/08 03:25:00;;;;;;;3.42;2.92;;;;;;;18.07;100.00;100635.78;5014621;28;20109;-63
2021/07/08 03:27:44;;;;;;;4.65;2.80;;;;;;;18.10;100.00;100636.28;5014196;28;20161;-64
2021/07/08 03:30:30;;;;;;;3.97;2.70;;;;;;;18.12;100.00;100625.31;5012689;28;20110;-64
2021/07/08 03:33:14;;;;;;;4.78;2.55;;;;;;;18.14;100.00;100623.25;5012779;28;20479;-64
2021/07/08 03:35:58;;;;;;;4.72;2.30;;;;;;;18.14;100.00;100613.28;5013581;28;20056;-64
2021/07/08 03:38:42;;;;;;;7.72;2.75;;;;;;;18.16;100.00;100591.53;5013647;28;20056;-63
2021/07/08 03:41:26;;;;;;;7.50;2.60;;;;;;;18.14;100.00;100580.91;5012721;28;20121;-64
2021/07/08 03:44:10;;;;;;;3.47;2.65;;;;;;;18.22;100.00;100578.13;5014076;28;20076;-64
2021/07/08 03:46:54;;;;;;;6.15;3.08;;;;;;;18.18;100.00;100565.19;5012854;28;20100;-64
2021/07/08 03:49:38;;;;;;;8.15;2.78;;;;;;;18.20;100.00;100563.16;5013950;28;20144;-64
2021/07/08 03:52:22;;;;;;;5.63;2.78;;;;;;;18.17;100.00;100569.75;5012254;28;20140;-64
2021/07/08 03:55:07;;;;;;;4.50;2.63;;;;;;;18.15;100.00;100579.91;5013491;28;20115;-64
2021/07/08 03:57:57;;;;;;;4.68;2.65;;;;;;;18.14;100.00;100586.28;5013446;28;20154;-63
2021/07/08 04:00:43;;;;;;;3.17;2.80;;;;;;;18.15;100.00;100584.44;5012394;28;20135;-65
2021/07/08 04:03:27;;;;;;;7.35;2.85;;;;;;;18.16;100.00;100588.81;5012397;28;20052;-64
2021/07/08 04:06:11;;;;;;;5.53;2.40;;;;;;;18.13;100.00;100589.19;5013474;28;20174;-64
2021/07/08 04:08:55;;;;;;;4.07;2.63;;;;;;;18.11;100.00;100581.28;5012309;28;20104;-64
2021/07/08 04:11:39;;;;;;;3.95;2.78;;;;;;;18.12;100.00;100580.25;4998195;28;20057;-64
2021/07/08 04:14:23;;;;;;;4.20;2.70;;;;;;;18.11;100.00;100573.19;5012577;28;20051;-64
2021/07/08 04:17:06;;;;;;;5.22;2.47;;;;;;;18.09;100.00;100571.69;5012007;28;20081;-64
2021/07/08 04:19:51;;;;;;;4.05;2.70;;;;;;;18.08;100.00;100592.44;5011985;28;20526;-64
2021/07/08 04:22:35;;;;;;;7.00;3.33;;;;;;;18.11;100.00;100597.47;5012074;28;20055;-64
2021/07/08 04:25:20;;;;;;;4.30;2.67;;;;;;;18.10;100.00;100601.19;5012081;28;20053;-63
2021/07/08 04:28:05;;;;;;;4.82;2.92;;;;;;;18.10;100.00;100612.00;4998491;28;20104;-64
2021/07/08 04:30:49;;;;;;;3.15;2.35;;;;;;;18.12;100.00;100615.34;5011769;28;20048;-64
2021/07/08 04:33:33;;;;;;;;;;;;;;;18.15;100.00;100614.97;5012140;28;20514;-63
2021/07/08 04:36:17;;;;;;;3.47;2.25;;;;;;;18.21;100.00;100616.09;5011682;28;19966;-64
2021/07/08 04:39:02;;;;;;;6.03;2.78;;;;;;;18.27;100.00;100607.25;4998199;28;20403;-64
2021/07/08 04:41:47;;;;;;;3.83;2.40;;;;;;;18.33;100.00;100607.38;5011883;28;20108;-64
2021/07/08 04:44:31;;;;;;;4.05;2.25;;;;;;;18.37;100.00;100616.81;5012691;28;20052;-63
2021/07/08 04:47:15;;;;;;;3.20;2.40;;;;;;;18.42;100.00;100609.81;5013137;28;20211;-64
2021/07/08 04:49:59;;;;;;;3.22;2.70;;;;;;;18.43;100.00;100603.41;5012731;28;20064;-64
2021/07/08 04:52:44;;;;;;;4.70;2.97;;;;;;;18.50;100.00;100603.47;4997732;28;20576;-64
2021/07/08 04:55:28;;;;;;;2.75;2.47;;;;;;;18.58;100.00;100606.09;5011552;28;20049;-64
2021/07/08 04:58:12;;;;;;;4.60;2.85;;;;;;;18.64;100.00;100618.81;4998737;28;20076;-64
2021/07/08 05:00:59;;;;;;;4.53;2.80;;;;;;;18.76;100.00;100603.84;5002155;28;20104;-64
2021/07/08 05:03:43;;;;;;;8.10;2.50;;;;;;;18.82;100.00;100605.78;5015478;28;20076;-64
2021/07/08 05:06:27;;;;;;;6.20;2.25;;;;;;;18.84;100.00;100609.13;5016458;28;20040;-64
2021/07/08 05:09:12;;;;;;;3.10;2.17;;;;;;;18.88;100.00;100613.13;5016599;28;20044;-64
2021/07/08 05:11:55;;;;;;;3.50;2.75;;;;;;;18.95;100.00;100614.03;5015101;28;20561;-64
2021/07/08 05:14:40;;;;;;;7.88;3.00;;;;;;;19.02;100.00;100610.41;5015246;28;20422;-64
2021/07/08 05:17:25;;;;;;;6.07;2.78;;;;;;;19.02;100.00;100607.72;5014948;28;20049;-64
2021/07/08 05:20:09;;;;;;;4.60;2.70;;;;;;;19.08;100.00;100619.63;5015373;28;20084;-64
2021/07/08 05:23:00;;;;;;;3.58;2.70;;;;;;;19.11;100.00;100632.75;5015081;28;20080;-64
2021/07/08 05:25:45;;;;;;;3.03;2.70;;;;;;;19.15;100.00;100642.97;5014928;28;20134;-64
2021/07/08 05:28:31;;;;;;;4.20;3.05;;;;;;;19.23;100.00;100650.16;5015212;28;20472;-64
2021/07/08 05:31:15;;;;;;;3.80;2.88;;;;;;;19.24;100.00;100646.44;5014572;28;20060;-65
2021/07/08 05:33:59;;;;;;;3.80;2.80;;;;;;;19.28;100.00;100658.56;5016190;28;20049;-64
2021/07/08 05:36:43;;;;;;;4.53;2.47;;;;;;;19.29;100.00;100660.22;5015941;28;20482;-64
2021/07/08 05:39:26;;;;;;;;;;;;;;;19.29;100.00;100654.81;5016165;28;20462;-64
2021/07/08 05:42:10;;;;;;;4.60;2.25;;;;;;;19.33;100.00;100661.50;5015802;28;19920;-64
2021/07/08 05:44:55;;;;;;;3.65;2.97;;;;;;;19.34;100.00;100674.00;5015021;28;20103;-64
2021/07/08 05:47:39;;;;;;;4.93;2.65;;;;;;;19.39;100.00;100676.97;5015798;28;20100;-64
2021/07/08 05:50:23;;;;;;;4.05;2.97;;;;;;;19.44;100.00;100675.38;5014600;28;20127;-65
2021/07/08 05:53:06;;;;;;;4.53;2.50;;;;;;;19.54;100.00;100686.72;5014662;28;20044;-65
2021/07/08 05:55:51;;;;;;;3.05;2.70;;;;;;;19.63;100.00;100684.72;5015836;28;20471;-65
2021/07/08 05:58:35;;;;;;;4.93;2.60;;;;;;;19.77;100.00;100698.19;5014581;28;20458;-64
2021/07/08 06:01:20;;;;;;;3.45;2.15;;;;;;;19.91;100.00;100704.59;5014496;28;20407;-63
2021/07/08 06:04:04;;;;;;;7.00;2.00;;;;;;;20.05;100.00;100701.84;5014313;28;20056;-64
2021/07/08 06:06:48;;;;;;;4.03;2.20;;;;;;;20.17;100.00;100707.53;5014694;28;20080;-64
2021/07/08 06:09:32;;;;;;;2.65;2.08;;;;;;;20.25;100.00;100702.00;4999918;28;20049;-64
2021/07/08 06:12:16;;;;;;;2.70;2.17;;;;;;;20.27;100.00;100689.09;5000355;28;20100;-64
2021/07/08 06:15:00;;;;;;;2.92;2.17;;;;;;;20.30;100.00;100699.56;5014638;28;20052;-62
2021/07/08 06:17:44;;;;;;;4.28;1.83;;;;;;;20.31;100.00;100703.94;5015059;28;20045;-64
2021/07/08 06:20:28;;;;;;;4.65;1.90;;;;;;;20.32;100.00;100698.31;5015317;28;20096;-64
2021/07/08 06:23:12;;;;;;;;;;;;;;;20.28;99.64;100712.44;5014461;28;20049;-64
2021/07/08 06:25:56;;;;;;;4.27;2.10;;;;;;;20.29;100.00;100719.50;5015264;28;19923;-63
2021/07/08 06:28:42;;;;;;;8.07;3.10;;;;;;;20.31;100.00;100720.19;5014332;28;20414;-64
2021/07/08 06:31:26;;;;;;;4.88;2.65;;;;;;;20.34;100.00;100726.06;5013620;28;20120;-64
2021/07/08 06:34:10;;;;;;;3.08;2.30;;;;;;;20.38;100.00;100721.91;5014046;28;20096;-64
2021/07/08 06:36:53;;;;;;;2.40;2.03;;;;;;;20.57;100.00;100725.78;5014652;28;20144;-64
2021/07/08 06:39:37;;;;;;;;;;;;;;;20.82;99.76;100727.03;5015059;28;20188;-64
2021/07/08 06:42:21;;;;;;;5.33;2.33;;;;;;;21.04;98.05;100715.91;5013639;28;19920;-64
2021/07/08 06:45:06;;;;;;;5.05;2.40;;;;;;;20.96;98.80;100702.53;5014822;28;20678;-64
2021/07/08 06:47:51;;;;;;;7.55;2.55;;;;;;;20.94;98.27;100698.34;5014814;28;20479;-64
2021/07/08 06:50:36;;;;;;;5.13;2.60;;;;;;;21.04;97.64;100707.78;4999949;28;20084;-65
2021/07/08 06:53:20;;;;;;;2.63;2.08;;;;;;;21.14;97.32;100712.84;5014606;28;20048;-64
2021/07/08 06:56:05;;;;;;;2.33;2.08;;;;;;;21.28;97.56;100708.09;5014503;28;20545;-64
2021/07/08 06:58:49;;;;;;;8.30;2.28;;;;;;;21.47;95.27;100707.34;5013428;28;20045;-64
2021/07/08 07:01:33;;;;;;;3.90;2.10;;;;;;;21.73;92.52;100709.31;5013324;28;20057;-64
2021/07/08 07:04:17;;;;;;;4.25;2.20;;;;;;;21.91;88.05;100699.53;5013468;28;20052;-64
2021/07/08 07:07:00;;;;;;;3.70;2.10;;;;;;;22.10;87.47;100698.72;5014446;28;20088;-64
2021/07/08 07:09:44;;;;;;;4.93;2.50;;;;;;;22.28;87.33;100696.22;5014118;28;20064;-64
2021/07/08 07:12:28;;;;;;;;;;;;;;;22.43;85.03;100699.59;5013520;28;20052;-64
2021/07/08 07:15:14;;;;;;;4.93;2.30;;;;;;;22.63;82.74;100694.97;5012981;28;20292;-64
2021/07/08 07:17:59;;;;;;;7.55;2.28;;;;;;;22.71;81.82;100696.66;5013886;28;20298;-64
2021/07/08 07:20:43;;;;;;;3.70;2.42;;;;;;;22.69;81.43;100693.28;5012313;28;20060;-64
2021/07/08 07:23:26;;;;;;;5.72;2.85;;;;;;;22.93;80.05;100682.56;5013145;28;20057;-64
2021/07/08 07:26:11;;;;;;;5.45;2.60;;;;;;;23.23;79.89;100685.66;5012958;28;20049;-64
2021/07/08 07:28:54;;;;;;;2.67;2.10;;;;;;;23.43;78.48;100692.66;4998841;28;20123;-64
2021/07/08 07:31:38;;;;;;;8.73;2.47;;;;;;;23.74;76.44;100692.69;5012722;28;20108;-64
2021/07/08 07:34:22;;;;;;;;;;;;;;;23.90;74.47;100696.81;5014311;28;20212;-64
2021/07/08 07:37:06;;;;;;;7.18;3.03;;;;;;;23.96;74.08;100698.66;5012582;28;20051;-65
2021/07/08 07:39:50;;;;;;;5.25;2.25;;;;;;;24.13;73.47;100691.63;5013473;28;20099;-64
2021/07/08 07:42:34;;;;;;;;;;;;;;;24.09;72.41;100691.25;5012924;28;20459;-64
2021/07/08 07:45:18;;;;;;;3.13;1.77;;;;;;;24.11;72.76;100691.84;5013072;28;20438;-63
2021/07/08 07:48:02;;;;;;;4.28;2.10;;;;;;;24.28;72.80;100698.41;5012556;28;20088;-65
2021/07/08 07:50:46;;;;;;;10.35;1.92;;;;;;;24.41;72.60;100698.31;5012657;28;20057;-65
2021/07/08 07:53:30;;;;;;;3.95;1.88;;;;;;;24.56;71.93;100707.84;5013360;28;20056;-65
2021/07/08 07:56:16;;;;;;;;;;;;;;;24.62;71.11;100712.38;4999203;28;20083;-65
2021/07/08 07:59:00;;;;;;;3.95;2.00;;;;;;;24.65;70.45;100711.94;5012086;28;20409;-65
2021/07/08 08:01:44;;;;;;;;;;;;;;;24.63;70.92;100714.06;5013809;28;20099;-64
2021/07/08 08:04:30;;;;;;;5.57;2.03;;;;;;;24.62;71.27;100717.81;5012335;28;19921;-64
2021/07/08 08:10:19;;;;;;;2.40;2.10;;;;;;;24.55;68.94;100699.88;5012420;28;20048;-64
2021/07/08 08:13:05;;;;;;;5.57;2.63;;;;;;;24.33;69.52;100698.56;5012911;28;20096;-64
2021/07/08 08:15:52;;;;;;;3.63;2.50;;;;;;;24.35;69.14;100705.47;5012202;28;20049;-65
2021/07/08 08:18:36;;;;;;;2.97;2.15;;;;;;;24.37;69.34;100707.97;5011893;28;20092;-64
2021/07/08 08:21:19;;;;;;;8.32;2.28;;;;;;;24.32;68.63;100710.53;4998136;28;20052;-63
2021/07/08 08:24:04;;;;;;;2.38;1.60;;;;;;;24.43;68.48;100712.53;5012894;28;20479;-64
2021/07/08 08:26:51;;;;;;;3.15;1.88;;;;;;;24.55;68.13;100716.22;5012004;28;20416;-65
2021/07/08 08:29:35;;;;;;;4.35;2.00;;;;;;;24.58;68.62;100722.06;5013092;28;20079;-65
2021/07/08 08:32:19;;;;;;;;;;;;;;;24.51;69.10;100720.44;5013426;28;20051;-67
2021/07/08 08:35:03;;;;;;;2.50;1.70;;;;;;;24.42;68.65;100721.78;5011782;28;19941;-66
2021/07/08 08:37:49;;;;;;;6.90;1.77;;;;;;;24.38;68.29;100726.00;5011925;28;20053;-67
2021/07/08 08:40:33;;;;;;;5.78;1.90;;;;;;;24.15;69.46;100723.88;5012180;28;20053;-67
2021/07/08 08:43:17;;;;;;;;;;;;;;;23.75;72.23;100734.38;5013231;28;20076;-66
2021/07/08 08:46:01;;;;;;;4.07;1.90;;;;;;;23.59;75.42;100735.72;5011875;28;19979;-67
2021/07/08 08:48:44;;;;;;;6.28;2.40;;;;;;;23.37;74.52;100749.81;5011869;28;20309;-67
2021/07/08 08:51:28;;;;;;;;;;;;;;;23.14;77.57;100758.47;4998389;28;20049;-67
2021/07/08 08:54:12;;;;;;;3.28;2.25;;;;;;;23.07;80.91;100770.38;5011617;28;19940;-66
2021/07/08 08:56:56;;;;;;;;;;;;;;;22.99;87.65;100766.03;5012292;28;20111;-66
2021/07/08 08:59:40;;;;;;;3.30;2.30;;;;;;;22.59;89.29;100775.25;5011808;28;20023;-66
2021/07/08 09:02:24;;;;;;;3.22;2.40;;;;;;;22.34;92.10;100782.34;5013004;28;20410;-67
2021/07/08 09:05:16;;;;;;;;;;;;;;;21.32;100.00;100769.06;5012944;28;20473;-66
2021/07/08 09:08:21;;;;;;;10.20;2.80;;;;;;;20.77;100.00;100772.81;5011704;28;20294;-66
2021/07/08 09:11:24;;;;;;;7.68;2.80;;;;;;;20.41;100.00;100772.97;5011620;28;20056;-65
2021/07/08 09:14:07;;;;;;;4.82;3.28;;;;;;;20.21;100.00;100776.53;5012690;28;20064;-65
2021/07/08 09:16:51;;;;;;;6.20;3.13;;;;;;;20.04;100.00;100775.97;5012544;28;20045;-65
2021/07/08 09:19:37;;;;;;;5.82;3.60;;;;;;;20.04;100.00;100784.06;5012610;28;20084;-65
2021/07/08 09:22:28;;;;;;;8.30;3.28;;;;;;;20.05;100.00;100780.34;5011361;28;20135;-65
2021/07/08 09:25:18;;;;;;;7.72;3.90;;;;;;;20.05;100.00;100793.03;5012419;28;20560;-64
2021/07/08 09:28:11;;;;;;;6.38;3.53;;;;;;;19.78;100.00;100791.03;5011284;28;20125;-65
2021/07/08 09:30:59;;;;;;;3.92;3.20;;;;;;;19.81;100.00;100796.06;5011197;28;20426;-66
2021/07/08 09:33:43;;;;;;;5.18;3.58;;;;;;;19.83;100.00;100788.59;5012348;28;20056;-66
2021/07/08 09:36:27;;;;;;;5.57;3.88;;;;;;;19.95;100.00;100781.63;5012395;28;20439;-66
2021/07/08 09:39:11;;;;;;;7.25;4.00;;;;;;;20.05;100.00;100784.91;5011403;28;20128;-65
2021/07/08 09:41:57;;;;;;;4.68;4.20;;;;;;;20.19;100.00;100800.25;5012120;28;20056;-67
2021/07/08 09:44:41;;;;;;;5.50;4.07;;;;;;;20.23;100.00;100793.41;5013733;28;20088;-67
2021/07/08 09:47:27;;;;;;;6.20;4.60;;;;;;;20.14;100.00;100787.31;5014948;28;20064;-66
2021/07/08 09:50:12;;;;;;;7.20;4.72;;;;;;;20.23;100.00;100779.88;5015856;28;20458;-64
2021/07/08 09:53:11;;;;;;;6.75;4.65;;;;;;;20.19;100.00;100784.03;5015599;28;20116;-66
2021/07/08 09:58:52;;;;;;;8.38;5.10;;;;;;;20.38;100.00;100794.16;5014704;28;20080;-66
2021/07/08 10:01:37;;;;;;;9.02;6.18;;;;;;;20.39;100.00;100795.84;5000776;28;20475;-65
2021/07/08 10:04:21;;;;;;;10.23;5.00;;;;;;;20.36;100.00;100791.69;5014643;28;20072;-66
2021/07/08 10:07:05;;;;;;;7.82;5.10;;;;;;;20.32;100.00;100801.19;5015357;28;20356;-67
2021/07/08 10:09:49;;;;;;;8.73;5.72;;;;;;;20.29;100.00;100808.88;5015599;28;20045;-66
2021/07/08 10:12:33;;;;;;;12.43;4.78;;;;;;;20.29;100.00;100809.72;5000306;28;20111;-67
2021/07/08 10:15:18;;;;;;;9.23;5.05;;;;;;;20.19;100.00;100802.97;5000834;28;20052;-67
2021/07/08 10:18:04;;;;;;;7.72;4.85;;;;;;;20.24;100.00;100795.94;5014280;28;20048;-66
2021/07/08 10:20:51;;;;;;;6.15;5.00;;;;;;;20.38;100.00;100791.47;5015206;28;20099;-66
2021/07/08 10:23:37;;;;;;;7.78;4.95;;;;;;;20.42;100.00;100796.28;5015461;28;20107;-66
2021/07/08 10:26:21;;;;;;;5.30;4.40;;;;;;;20.44;100.00;100798.81;5014244;28;20108;-67
2021/07/08 10:29:08;;;;;;;6.70;5.13;;;;;;;20.40;100.00;100789.44;5015061;28;20049;-66
2021/07/08 10:31:52;;;;;;;5.95;5.35;;;;;;;20.46;100.00;100792.19;5014866;28;20137;-66
2021/07/08 10:34:47;;;;;;;5.38;4.13;;;;;;;20.44;100.00;100788.00;5014014;28;20125;-66
2021/07/08 10:37:33;;;;;;;5.75;4.95;;;;;;;20.40;100.00;100776.69;5013834;28;20045;-66
2021/07/08 10:40:29;;;;;;;6.40;4.57;;;;;;;20.43;100.00;100778.19;5014715;28;20080;-65
2021/07/08 10:43:13;;;;;;;6.05;4.75;;;;;;;20.43;100.00;100775.47;5013546;28;20104;-66
2021/07/08 10:46:04;;;;;;;5.18;4.45;;;;;;;20.47;100.00;100776.75;5013932;28;20561;-66
2021/07/08 10:48:50;;;;;;;6.35;4.20;;;;;;;20.60;100.00;100787.72;5014557;28;20164;-67
2021/07/08 10:51:36;;;;;;;5.30;4.05;;;;;;;20.49;100.00;100785.50;5014565;28;20064;-66
2021/07/08 10:54:24;;;;;;;4.60;3.70;;;;;;;20.51;100.00;100794.31;5013626;28;20052;-66
2021/07/08 10:57:35;;;;;;;4.88;4.38;;;;;;;20.57;100.00;100790.81;4999707;28;20049;-66
2021/07/08 11:00:43;;;;;;;5.57;4.20;;;;;;;20.37;100.00;100789.78;5013513;28;20045;-66
2021/07/08 11:03:33;;;;;;;6.45;4.50;;;;;;;20.46;100.00;100796.75;5014210;28;20049;-66
2021/07/08 11:06:17;;;;;;;7.03;4.07;;;;;;;20.46;100.00;100794.03;5014460;28;20557;-66
2021/07/08 11:09:16;;;;;;;7.13;4.40;;;;;;;20.44;100.00;100793.41;5014175;28;20094;-65
2021/07/08 11:12:03;;;;;;;5.85;4.20;;;;;;;20.42;100.00;100804.41;5014052;28;20103;-66
2021/07/08 11:14:47;;;;;;;4.75;4.25;;;;;;;20.28;100.00;100810.75;5013211;28;20053;-66
2021/07/08 11:17:43;;;;;;;4.63;3.38;;;;;;;20.10;100.00;100807.66;5013168;28;20415;-67
2021/07/08 11:20:32;;;;;;;7.75;4.10;;;;;;;19.95;100.00;100809.53;5014044;28;20060;-66
2021/07/08 11:23:45;;;;;;;4.50;3.80;;;;;;;19.83;100.00;100805.66;5012769;28;20115;-66
2021/07/08 11:26:55;;;;;;;4.25;3.70;;;;;;;19.67;100.00;100821.25;5007547;28;20144;-66
2021/07/08 11:29:41;;;;;;;3.88;3.47;;;;;;;19.62;100.00;100812.88;5012920;28;20096;-66
2021/07/08 11:32:48;;;;;;;8.90;4.60;;;;;;;19.62;100.00;100812.88;5012523;28;20056;-66
2021/07/08 11:35:40;;;;;;;8.32;4.88;;;;;;;19.70;100.00;100801.97;5013699;28;20053;-66
2021/07/08 11:38:25;;;;;;;5.97;4.38;;;;;;;19.71;100.00;100804.47;5012761;28;20151;-67
2021/07/08 11:41:10;;;;;;;7.10;4.38;;;;;;;19.57;100.00;100809.91;5012724;28;20092;-66
2021/07/08 11:43:54;;;;;;;7.90;4.47;;;;;;;19.38;100.00;100807.78;5013581;28;20045;-67
2021/07/08 11:46:38;;;;;;;9.30;4.30;;;;;;;19.24;100.00;100817.59;5012518;28;20125;-67
2021/07/08 11:49:22;;;;;;;;;;;;;;;19.21;100.00;100806.31;5014151;28;20068;-67
2021/07/08 11:52:17;;;;;;;5.33;4.83;;;;;;;19.17;100.00;100803.09;5012647;28;19936;-67
2021/07/08 11:55:01;;;;;;;6.90;4.28;;;;;;;19.11;100.00;100792.19;5012311;28;20053;-66
2021/07/08 11:57:56;;;;;;;5.95;5.03;;;;;;;19.01;100.00;100795.19;5012350;28;20049;-67
2021/07/08 12:00:46;;;;;;;10.00;5.38;;;;;;;19.06;100.00;100786.50;4998591;28;20111;-67
2021/07/08 12:03:41;;;;;;;8.52;5.70;;;;;;;19.19;100.00;100784.03;5013592;28;20510;-68
2021/07/08 12:06:28;;;;;;;9.35;5.07;;;;;;;19.28;100.00;100788.31;5011888;28;20049;-67
2021/07/08 12:09:13;;;;;;;8.20;5.85;;;;;;;19.39;100.00;100780.53;5013626;28;20111;-66
2021/07/08 12:12:00;;;;;;;5.55;4.80;;;;;;;19.63;100.00;100765.88;5012220;28;20052;-66
2021/07/08 12:14:44;;;;;;;7.03;5.45;;;;;;;19.94;100.00;100771.84;4998796;28;20095;-67
2021/07/08 12:17:30;;;;;;;5.43;4.93;;;;;;;20.11;100.00;100766.00;5013031;28;20049;-66
2021/07/08 12:20:15;;;;;;;4.53;4.10;;;;;;;20.31;100.00;100768.91;5013223;28;20057;-66
2021/07/08 12:23:03;;;;;;;4.60;3.88;;;;;;;20.39;100.00;100779.59;5011911;28;20052;-66
2021/07/08 12:25:47;;;;;;;4.10;3.65;;;;;;;20.45;100.00;100773.41;5011913;28;20056;-66
2021/07/08 12:28:31;;;;;;;3.97;3.58;;;;;;;20.55;100.00;100779.34;4998489;28;20049;-66
2021/07/08 12:31:15;;;;;;;4.45;4.05;;;;;;;20.55;100.00;100779.34;5011803;28;20517;-66
2021/07/08 12:34:02;;;;;;;4.45;3.60;;;;;;;20.53;100.00;100765.97;5011838;28;20057;-65
2021/07/08 12:36:47;;;;;;;3.65;3.20;;;;;;;20.57;100.00;100763.72;5012731;28;20140;-65
2021/07/08 12:39:30;;;;;;;3.72;3.08;;;;;;;20.79;100.00;100762.63;4998240;28;20104;-66
2021/07/08 12:42:19;;;;;;;3.55;2.78;;;;;;;20.79;100.00;100744.50;5011652;28;20564;-66
2021/07/08 12:45:14;;;;;;;4.20;3.20;;;;;;;20.98;100.00;100740.28;5012790;28;20100;-65
2021/07/08 12:47:58;;;;;;;3.30;2.60;;;;;;;21.12;100.00;100740.16;5011906;28;20497;-65
2021/07/08 12:50:45;;;;;;;3.67;2.60;;;;;;;21.17;100.00;100749.34;5013020;28;20049;-66
2021/07/08 12:53:28;;;;;;;2.50;2.30;;;;;;;21.32;100.00;100746.50;5011854;28;20057;-67